sensor_id;sensor_type;location;lat;lon;timestamp;temperature;humidity
12470;DHT22;36499;46.484;13.832;2022-09-09T00:00:29;14.50;99.90
12470;DHT22;36499;46.484;13.832;2022-09-09T00:03:10;14.50;99.90
12470;DHT22;36499;46.484;13.832;2022-09-09T00:05:48;14.60;99.90
12470;DHT22;36499;46.484;13.832;2022-09-09T00:08:29;14.60;99.90
12470;DHT22;36499;46.484;13.832;2022-09-09T00:11:12;14.60;99.90
12470;DHT22;36499;46.484;13.832;2022-09-09T00:13:51;14.60;99.90
12470;DHT22;36499;46.484;13.832;2022-09-09T00:16:23;14.50;99.90
12470;DHT22;36499;46.484;13.832;2022-09-09T00:19:05;14.60;99.90
12470;DHT22;36499;46.484;13.832;2022-09-09T00:21:50;14.50;99.90
12470;DHT22;36499;46.484;13.832;2022-09-09T00:24:27;14.50;99.90
12470;DHT22;36499;46.484;13.832;2022-09-09T00:27:11;14.40;99.90
12470;DHT22;36499;46.484;13.832;2022-09-09T00:29:57;14.40;99.90
12470;DHT22;36499;46.484;13.832;2022-09-09T00:32:34;14.30;99.90
12470;DHT22;36499;46.484;13.832;2022-09-09T00:35:18;14.30;99.90
12470;DHT22;36499;46.484;13.832;2022-09-09T00:37:51;14.30;99.90
12470;DHT22;36499;46.484;13.832;2022-09-09T00:40:27;14.40;99.90
12470;DHT22;36499;46.484;13.832;2022-09-09T00:43:15;14.40;99.90
12470;DHT22;36499;46.484;13.832;2022-09-09T00:49:34;14.40;99.90
12470;DHT22;36499;46.484;13.832;2022-09-09T00:52:23;14.40;99.90
12470;DHT22;36499;46.484;13.832;2022-09-09T00:55:04;14.40;99.90
12470;DHT22;36499;46.484;13.832;2022-09-09T00:57:41;14.30;99.90
12470;DHT22;36499;46.484;13.832;2022-09-09T01:00:24;14.30;99.90
12470;DHT22;36499;46.484;13.832;2022-09-09T01:03:21;14.30;99.90
12470;DHT22;36499;46.484;13.832;2022-09-09T01:06:02;14.30;99.90
12470;DHT22;36499;46.484;13.832;2022-09-09T01:08:59;14.30;99.90
12470;DHT22;36499;46.484;13.832;2022-09-09T01:11:46;14.20;99.90
12470;DHT22;36499;46.484;13.832;2022-09-09T01:14:32;14.20;99.90
12470;DHT22;36499;46.484;13.832;2022-09-09T01:17:14;14.20;99.90
12470;DHT22;36499;46.484;13.832;2022-09-09T01:19:56;14.20;99.90
12470;DHT22;36499;46.484;13.832;2022-09-09T01:22:40;14.20;99.90
12470;DHT22;36499;46.484;13.832;2022-09-09T01:25:56;14.20;99.90
12470;DHT22;36499;46.484;13.832;2022-09-09T01:28:43;14.20;99.90
12470;DHT22;36499;46.484;13.832;2022-09-09T01:31:18;14.20;99.90
12470;DHT22;36499;46.484;13.832;2022-09-09T01:33:48;14.20;99.90
12470;DHT22;36499;46.484;13.832;2022-09-09T01:36:24;14.20;99.90
12470;DHT22;36499;46.484;13.832;2022-09-09T01:39:02;14.20;99.90
12470;DHT22;36499;46.484;13.832;2022-09-09T01:41:31;14.20;99.90
12470;DHT22;36499;46.484;13.832;2022-09-09T01:43:59;14.20;99.90
12470;DHT22;36499;46.484;13.832;2022-09-09T01:46:28;14.20;99.90
12470;DHT22;36499;46.484;13.832;2022-09-09T01:48:56;14.20;99.90
12470;DHT22;36499;46.484;13.832;2022-09-09T01:51:25;14.20;99.90
12470;DHT22;36499;46.484;13.832;2022-09-09T01:53:52;14.20;99.90
12470;DHT22;36499;46.484;13.832;2022-09-09T01:56:28;14.20;99.90
12470;DHT22;36499;46.484;13.832;2022-09-09T01:59:17;14.20;99.90
12470;DHT22;36499;46.484;13.832;2022-09-09T02:02:10;14.20;99.90
12470;DHT22;36499;46.484;13.832;2022-09-09T02:04:42;14.20;99.90
12470;DHT22;36499;46.484;13.832;2022-09-09T02:07:24;14.20;99.90
12470;DHT22;36499;46.484;13.832;2022-09-09T02:10:05;14.20;99.90
12470;DHT22;36499;46.484;13.832;2022-09-09T02:12:41;14.20;99.90
12470;DHT22;36499;46.484;13.832;2022-09-09T02:15:19;14.20;99.90
12470;DHT22;36499;46.484;13.832;2022-09-09T02:17:52;14.20;99.90
12470;DHT22;36499;46.484;13.832;2022-09-09T02:20:25;14.30;99.90
12470;DHT22;36499;46.484;13.832;2022-09-09T02:22:54;14.30;99.90
12470;DHT22;36499;46.484;13.832;2022-09-09T02:25:26;14.30;99.90
12470;DHT22;36499;46.484;13.832;2022-09-09T02:27:57;14.30;99.90
12470;DHT22;36499;46.484;13.832;2022-09-09T02:30:27;14.30;99.90
12470;DHT22;36499;46.484;13.832;2022-09-09T02:33:02;14.30;99.90
12470;DHT22;36499;46.484;13.832;2022-09-09T02:35:32;14.30;99.90
12470;DHT22;36499;46.484;13.832;2022-09-09T02:38:06;14.30;99.90
12470;DHT22;36499;46.484;13.832;2022-09-09T02:40:39;14.30;99.90
12470;DHT22;36499;46.484;13.832;2022-09-09T02:43:08;14.30;99.90
12470;DHT22;36499;46.484;13.832;2022-09-09T02:45:41;14.20;99.90
12470;DHT22;36499;46.484;13.832;2022-09-09T02:48:21;14.20;99.90
12470;DHT22;36499;46.484;13.832;2022-09-09T02:50:59;14.20;99.90
12470;DHT22;36499;46.484;13.832;2022-09-09T02:53:41;14.20;99.90
12470;DHT22;36499;46.484;13.832;2022-09-09T02:56:17;14.20;99.90
12470;DHT22;36499;46.484;13.832;2022-09-09T02:58:52;14.10;99.90
12470;DHT22;36499;46.484;13.832;2022-09-09T03:01:20;14.10;99.90
12470;DHT22;36499;46.484;13.832;2022-09-09T03:03:48;14.10;99.90
12470;DHT22;36499;46.484;13.832;2022-09-09T03:06:15;14.10;99.90
12470;DHT22;36499;46.484;13.832;2022-09-09T03:08:42;14.10;99.90
12470;DHT22;36499;46.484;13.832;2022-09-09T03:11:09;14.00;99.90
12470;DHT22;36499;46.484;13.832;2022-09-09T03:13:36;14.00;99.90
12470;DHT22;36499;46.484;13.832;2022-09-09T03:16:06;14.10;99.90
12470;DHT22;36499;46.484;13.832;2022-09-09T03:18:37;14.00;99.90
12470;DHT22;36499;46.484;13.832;2022-09-09T03:21:05;14.10;99.90
12470;DHT22;36499;46.484;13.832;2022-09-09T03:23:32;14.10;99.90
12470;DHT22;36499;46.484;13.832;2022-09-09T03:25:59;14.10;99.90
12470;DHT22;36499;46.484;13.832;2022-09-09T03:28:27;14.10;99.90
12470;DHT22;36499;46.484;13.832;2022-09-09T03:30:59;14.10;99.90
12470;DHT22;36499;46.484;13.832;2022-09-09T03:33:32;14.10;99.90
12470;DHT22;36499;46.484;13.832;2022-09-09T03:35:59;14.10;99.90
12470;DHT22;36499;46.484;13.832;2022-09-09T03:38:27;14.10;99.90
12470;DHT22;36499;46.484;13.832;2022-09-09T03:40:56;14.10;99.90
12470;DHT22;36499;46.484;13.832;2022-09-09T03:43:25;14.20;99.90
12470;DHT22;36499;46.484;13.832;2022-09-09T03:45:53;14.20;99.90
12470;DHT22;36499;46.484;13.832;2022-09-09T03:48:22;14.20;99.90
12470;DHT22;36499;46.484;13.832;2022-09-09T03:50:53;14.20;99.90
12470;DHT22;36499;46.484;13.832;2022-09-09T03:53:22;14.20;99.90
12470;DHT22;36499;46.484;13.832;2022-09-09T03:55:53;14.20;99.90
12470;DHT22;36499;46.484;13.832;2022-09-09T03:58:22;14.20;99.90
12470;DHT22;36499;46.484;13.832;2022-09-09T04:00:56;14.20;99.90
12470;DHT22;36499;46.484;13.832;2022-09-09T04:03:25;14.20;99.90
12470;DHT22;36499;46.484;13.832;2022-09-09T04:05:54;14.20;99.90
12470;DHT22;36499;46.484;13.832;2022-09-09T04:08:23;14.20;99.90
12470;DHT22;36499;46.484;13.832;2022-09-09T04:10:51;14.20;99.90
12470;DHT22;36499;46.484;13.832;2022-09-09T04:13:22;14.20;99.90
12470;DHT22;36499;46.484;13.832;2022-09-09T04:15:50;14.30;99.90
12470;DHT22;36499;46.484;13.832;2022-09-09T04:18:20;14.30;99.90
12470;DHT22;36499;46.484;13.832;2022-09-09T04:20:53;14.30;99.90
12470;DHT22;36499;46.484;13.832;2022-09-09T04:23:23;14.30;99.90
12470;DHT22;36499;46.484;13.832;2022-09-09T04:25:54;14.20;99.90
12470;DHT22;36499;46.484;13.832;2022-09-09T04:28:28;14.20;99.90
12470;DHT22;36499;46.484;13.832;2022-09-09T04:30:57;14.20;99.90
12470;DHT22;36499;46.484;13.832;2022-09-09T04:33:30;14.20;99.90
12470;DHT22;36499;46.484;13.832;2022-09-09T04:35:59;14.20;99.90
12470;DHT22;36499;46.484;13.832;2022-09-09T04:38:26;14.20;99.90
12470;DHT22;36499;46.484;13.832;2022-09-09T04:40:53;14.20;99.90
12470;DHT22;36499;46.484;13.832;2022-09-09T04:43:21;14.20;99.90
12470;DHT22;36499;46.484;13.832;2022-09-09T04:45:52;14.20;99.90
12470;DHT22;36499;46.484;13.832;2022-09-09T04:48:20;14.20;99.90
12470;DHT22;36499;46.484;13.832;2022-09-09T04:50:55;14.20;99.90
12470;DHT22;36499;46.484;13.832;2022-09-09T04:53:24;14.20;99.90
12470;DHT22;36499;46.484;13.832;2022-09-09T04:55:53;14.20;99.90
12470;DHT22;36499;46.484;13.832;2022-09-09T04:58:27;14.20;99.90
12470;DHT22;36499;46.484;13.832;2022-09-09T05:00:54;14.20;99.90
12470;DHT22;36499;46.484;13.832;2022-09-09T05:03:21;14.20;99.90
12470;DHT22;36499;46.484;13.832;2022-09-09T05:05:50;14.20;99.90
12470;DHT22;36499;46.484;13.832;2022-09-09T05:08:18;14.20;99.90
12470;DHT22;36499;46.484;13.832;2022-09-09T05:10:47;14.20;99.90
12470;DHT22;36499;46.484;13.832;2022-09-09T05:13:18;14.20;99.90
12470;DHT22;36499;46.484;13.832;2022-09-09T05:15:53;14.20;99.90
12470;DHT22;36499;46.484;13.832;2022-09-09T05:18:21;14.20;99.90
12470;DHT22;36499;46.484;13.832;2022-09-09T05:20:48;14.20;99.90
12470;DHT22;36499;46.484;13.832;2022-09-09T05:23:16;14.20;99.90
12470;DHT22;36499;46.484;13.832;2022-09-09T05:25:43;14.20;99.90
12470;DHT22;36499;46.484;13.832;2022-09-09T05:28:13;14.20;99.90
12470;DHT22;36499;46.484;13.832;2022-09-09T05:30:40;14.20;99.90
12470;DHT22;36499;46.484;13.832;2022-09-09T05:33:08;14.20;99.90
12470;DHT22;36499;46.484;13.832;2022-09-09T05:35:35;14.20;99.90
12470;DHT22;36499;46.484;13.832;2022-09-09T05:38:03;14.30;99.90
12470;DHT22;36499;46.484;13.832;2022-09-09T05:40:30;14.30;99.90
12470;DHT22;36499;46.484;13.832;2022-09-09T05:43:00;14.30;99.90
12470;DHT22;36499;46.484;13.832;2022-09-09T05:45:29;14.30;99.90
12470;DHT22;36499;46.484;13.832;2022-09-09T05:47:56;14.30;99.90
12470;DHT22;36499;46.484;13.832;2022-09-09T05:50:25;14.30;99.90
12470;DHT22;36499;46.484;13.832;2022-09-09T05:52:54;14.30;99.90
12470;DHT22;36499;46.484;13.832;2022-09-09T05:55:21;14.20;99.90
12470;DHT22;36499;46.484;13.832;2022-09-09T05:57:49;14.20;99.90
12470;DHT22;36499;46.484;13.832;2022-09-09T06:00:18;14.20;99.90
12470;DHT22;36499;46.484;13.832;2022-09-09T06:02:51;14.10;99.90
12470;DHT22;36499;46.484;13.832;2022-09-09T06:05:19;14.10;99.90
12470;DHT22;36499;46.484;13.832;2022-09-09T06:07:48;14.10;99.90
12470;DHT22;36499;46.484;13.832;2022-09-09T06:10:18;14.00;99.90
12470;DHT22;36499;46.484;13.832;2022-09-09T06:12:46;14.00;99.90
12470;DHT22;36499;46.484;13.832;2022-09-09T06:15:13;14.00;99.90
12470;DHT22;36499;46.484;13.832;2022-09-09T06:17:40;14.00;99.90
12470;DHT22;36499;46.484;13.832;2022-09-09T06:20:10;14.00;99.90
12470;DHT22;36499;46.484;13.832;2022-09-09T06:22:39;14.00;99.90
12470;DHT22;36499;46.484;13.832;2022-09-09T06:25:08;13.90;99.90
12470;DHT22;36499;46.484;13.832;2022-09-09T06:27:36;13.90;99.90
12470;DHT22;36499;46.484;13.832;2022-09-09T06:30:04;13.90;99.90
12470;DHT22;36499;46.484;13.832;2022-09-09T06:32:31;14.00;99.90
12470;DHT22;36499;46.484;13.832;2022-09-09T06:35:00;13.90;99.90
12470;DHT22;36499;46.484;13.832;2022-09-09T06:37:29;13.90;99.90
12470;DHT22;36499;46.484;13.832;2022-09-09T06:40:02;13.90;99.90
12470;DHT22;36499;46.484;13.832;2022-09-09T06:42:31;13.90;99.90
12470;DHT22;36499;46.484;13.832;2022-09-09T06:44:58;14.00;99.90
12470;DHT22;36499;46.484;13.832;2022-09-09T06:47:25;14.00;99.90
12470;DHT22;36499;46.484;13.832;2022-09-09T06:49:54;14.00;99.90
12470;DHT22;36499;46.484;13.832;2022-09-09T06:52:21;14.00;99.90
12470;DHT22;36499;46.484;13.832;2022-09-09T06:54:51;14.00;99.90
12470;DHT22;36499;46.484;13.832;2022-09-09T06:57:19;14.00;99.90
12470;DHT22;36499;46.484;13.832;2022-09-09T06:59:46;14.10;99.90
12470;DHT22;36499;46.484;13.832;2022-09-09T07:02:13;14.10;99.90
12470;DHT22;36499;46.484;13.832;2022-09-09T07:04:40;14.20;99.90
12470;DHT22;36499;46.484;13.832;2022-09-09T07:07:08;14.20;99.90
12470;DHT22;36499;46.484;13.832;2022-09-09T07:09:37;14.20;99.90
12470;DHT22;36499;46.484;13.832;2022-09-09T07:12:07;14.20;99.90
12470;DHT22;36499;46.484;13.832;2022-09-09T07:14:35;14.30;99.90
12470;DHT22;36499;46.484;13.832;2022-09-09T07:17:03;14.40;99.90
12470;DHT22;36499;46.484;13.832;2022-09-09T07:19:30;14.40;99.90
12470;DHT22;36499;46.484;13.832;2022-09-09T07:21:57;14.40;99.90
12470;DHT22;36499;46.484;13.832;2022-09-09T07:24:24;14.50;99.90
12470;DHT22;36499;46.484;13.832;2022-09-09T07:26:55;14.50;99.90
12470;DHT22;36499;46.484;13.832;2022-09-09T07:29:24;14.50;99.90
12470;DHT22;36499;46.484;13.832;2022-09-09T07:31:51;14.50;99.90
12470;DHT22;36499;46.484;13.832;2022-09-09T07:34:18;14.50;99.90
12470;DHT22;36499;46.484;13.832;2022-09-09T07:36:45;14.50;99.90
12470;DHT22;36499;46.484;13.832;2022-09-09T07:39:13;14.50;99.90
12470;DHT22;36499;46.484;13.832;2022-09-09T07:41:44;14.50;99.90
12470;DHT22;36499;46.484;13.832;2022-09-09T07:44:14;14.60;99.90
12470;DHT22;36499;46.484;13.832;2022-09-09T07:46:44;14.70;99.90
12470;DHT22;36499;46.484;13.832;2022-09-09T07:49:13;14.80;99.90
12470;DHT22;36499;46.484;13.832;2022-09-09T07:51:43;14.90;99.90
12470;DHT22;36499;46.484;13.832;2022-09-09T07:54:14;14.90;99.90
12470;DHT22;36499;46.484;13.832;2022-09-09T07:56:45;15.00;99.90
12470;DHT22;36499;46.484;13.832;2022-09-09T07:59:13;15.10;99.90
12470;DHT22;36499;46.484;13.832;2022-09-09T08:01:42;15.20;99.90
12470;DHT22;36499;46.484;13.832;2022-09-09T08:04:13;15.20;99.90
12470;DHT22;36499;46.484;13.832;2022-09-09T08:06:44;15.30;99.90
12470;DHT22;36499;46.484;13.832;2022-09-09T08:09:13;15.40;99.90
12470;DHT22;36499;46.484;13.832;2022-09-09T08:11:42;15.40;99.90
12470;DHT22;36499;46.484;13.832;2022-09-09T08:14:10;15.40;99.90
12470;DHT22;36499;46.484;13.832;2022-09-09T08:16:40;15.50;99.90
12470;DHT22;36499;46.484;13.832;2022-09-09T08:19:14;15.50;99.90
12470;DHT22;36499;46.484;13.832;2022-09-09T08:21:43;15.50;99.90
12470;DHT22;36499;46.484;13.832;2022-09-09T08:24:11;15.40;99.90
12470;DHT22;36499;46.484;13.832;2022-09-09T08:26:43;15.40;99.90
12470;DHT22;36499;46.484;13.832;2022-09-09T08:29:12;15.40;99.90
12470;DHT22;36499;46.484;13.832;2022-09-09T08:32:10;15.40;99.90
12470;DHT22;36499;46.484;13.832;2022-09-09T08:34:43;15.40;99.90
12470;DHT22;36499;46.484;13.832;2022-09-09T08:37:11;15.40;99.90
12470;DHT22;36499;46.484;13.832;2022-09-09T08:39:40;15.40;99.90
12470;DHT22;36499;46.484;13.832;2022-09-09T08:42:33;15.40;99.90
12470;DHT22;36499;46.484;13.832;2022-09-09T08:45:26;15.50;99.90
12470;DHT22;36499;46.484;13.832;2022-09-09T08:48:24;15.50;99.90
12470;DHT22;36499;46.484;13.832;2022-09-09T08:51:13;15.50;99.90
12470;DHT22;36499;46.484;13.832;2022-09-09T08:53:43;15.50;99.90
12470;DHT22;36499;46.484;13.832;2022-09-09T08:56:17;15.50;99.90
12470;DHT22;36499;46.484;13.832;2022-09-09T08:58:49;15.40;99.90
12470;DHT22;36499;46.484;13.832;2022-09-09T09:01:50;15.40;99.90
12470;DHT22;36499;46.484;13.832;2022-09-09T09:04:41;15.30;99.90
12470;DHT22;36499;46.484;13.832;2022-09-09T09:07:32;15.20;99.90
12470;DHT22;36499;46.484;13.832;2022-09-09T09:10:45;15.10;99.90
12470;DHT22;36499;46.484;13.832;2022-09-09T09:13:18;15.10;99.90
12470;DHT22;36499;46.484;13.832;2022-09-09T09:15:52;15.00;99.90
12470;DHT22;36499;46.484;13.832;2022-09-09T09:18:25;14.90;99.90
12470;DHT22;36499;46.484;13.832;2022-09-09T09:21:00;14.90;99.90
12470;DHT22;36499;46.484;13.832;2022-09-09T09:23:39;14.90;99.90
12470;DHT22;36499;46.484;13.832;2022-09-09T09:26:11;15.00;99.90
12470;DHT22;36499;46.484;13.832;2022-09-09T09:28:40;15.00;99.90
12470;DHT22;36499;46.484;13.832;2022-09-09T09:31:25;15.00;99.90
12470;DHT22;36499;46.484;13.832;2022-09-09T09:33:55;15.10;99.90
12470;DHT22;36499;46.484;13.832;2022-09-09T09:36:34;15.20;99.90
12470;DHT22;36499;46.484;13.832;2022-09-09T09:39:08;15.20;99.90
12470;DHT22;36499;46.484;13.832;2022-09-09T09:41:38;15.20;99.90
12470;DHT22;36499;46.484;13.832;2022-09-09T09:44:22;15.20;99.90
12470;DHT22;36499;46.484;13.832;2022-09-09T09:46:51;15.30;99.90
12470;DHT22;36499;46.484;13.832;2022-09-09T09:49:19;15.40;99.90
12470;DHT22;36499;46.484;13.832;2022-09-09T09:51:46;15.50;99.90
12470;DHT22;36499;46.484;13.832;2022-09-09T09:54:21;15.50;99.90
12470;DHT22;36499;46.484;13.832;2022-09-09T09:56:54;15.50;99.90
12470;DHT22;36499;46.484;13.832;2022-09-09T09:59:23;15.70;99.90
12470;DHT22;36499;46.484;13.832;2022-09-09T10:02:21;15.70;99.90
12470;DHT22;36499;46.484;13.832;2022-09-09T10:05:01;15.60;99.90
12470;DHT22;36499;46.484;13.832;2022-09-09T10:07:30;15.60;99.90
12470;DHT22;36499;46.484;13.832;2022-09-09T10:10:00;15.60;99.90
12470;DHT22;36499;46.484;13.832;2022-09-09T10:12:37;15.50;99.90
12470;DHT22;36499;46.484;13.832;2022-09-09T10:15:29;15.50;99.90
12470;DHT22;36499;46.484;13.832;2022-09-09T10:18:29;15.40;99.90
12470;DHT22;36499;46.484;13.832;2022-09-09T10:21:24;15.40;99.90
12470;DHT22;36499;46.484;13.832;2022-09-09T10:24:42;15.30;99.90
12470;DHT22;36499;46.484;13.832;2022-09-09T10:27:25;15.30;99.90
12470;DHT22;36499;46.484;13.832;2022-09-09T10:30:15;15.30;99.90
12470;DHT22;36499;46.484;13.832;2022-09-09T10:35:30;15.30;99.90
12470;DHT22;36499;46.484;13.832;2022-09-09T10:38:11;15.30;99.90
12470;DHT22;36499;46.484;13.832;2022-09-09T10:40:58;15.30;99.90
12470;DHT22;36499;46.484;13.832;2022-09-09T10:44:02;15.30;99.90
12470;DHT22;36499;46.484;13.832;2022-09-09T10:46:51;15.40;99.90
12470;DHT22;36499;46.484;13.832;2022-09-09T10:49:49;15.40;99.90
12470;DHT22;36499;46.484;13.832;2022-09-09T10:52:32;15.50;99.90
12470;DHT22;36499;46.484;13.832;2022-09-09T10:55:10;15.70;99.90
12470;DHT22;36499;46.484;13.832;2022-09-09T10:57:46;15.80;99.90
12470;DHT22;36499;46.484;13.832;2022-09-09T11:00:19;15.90;99.90
12470;DHT22;36499;46.484;13.832;2022-09-09T11:02:52;16.00;99.90
12470;DHT22;36499;46.484;13.832;2022-09-09T11:05:30;16.10;99.90
12470;DHT22;36499;46.484;13.832;2022-09-09T11:08:05;16.30;99.90
12470;DHT22;36499;46.484;13.832;2022-09-09T11:10:40;16.30;99.90
12470;DHT22;36499;46.484;13.832;2022-09-09T11:13:17;16.40;99.90
12470;DHT22;36499;46.484;13.832;2022-09-09T11:15:54;16.40;99.90
12470;DHT22;36499;46.484;13.832;2022-09-09T11:18:28;16.40;99.90
12470;DHT22;36499;46.484;13.832;2022-09-09T11:21:01;16.50;99.90
12470;DHT22;36499;46.484;13.832;2022-09-09T11:23:38;16.50;99.90
12470;DHT22;36499;46.484;13.832;2022-09-09T11:26:17;16.50;99.90
12470;DHT22;36499;46.484;13.832;2022-09-09T11:28:58;16.50;99.90
12470;DHT22;36499;46.484;13.832;2022-09-09T11:31:59;16.40;99.90
12470;DHT22;36499;46.484;13.832;2022-09-09T11:34:43;16.40;99.90
12470;DHT22;36499;46.484;13.832;2022-09-09T11:37:44;16.40;99.90
12470;DHT22;36499;46.484;13.832;2022-09-09T11:40:24;16.40;99.90
12470;DHT22;36499;46.484;13.832;2022-09-09T11:43:02;16.60;99.90
12470;DHT22;36499;46.484;13.832;2022-09-09T11:45:33;16.70;99.90
12470;DHT22;36499;46.484;13.832;2022-09-09T11:48:04;16.80;99.90
12470;DHT22;36499;46.484;13.832;2022-09-09T11:50:34;16.90;99.90
12470;DHT22;36499;46.484;13.832;2022-09-09T11:56:05;17.00;99.90
12470;DHT22;36499;46.484;13.832;2022-09-09T11:58:40;17.00;99.90
12470;DHT22;36499;46.484;13.832;2022-09-09T12:04:30;17.10;99.90
12470;DHT22;36499;46.484;13.832;2022-09-09T12:07:04;17.20;99.90
12470;DHT22;36499;46.484;13.832;2022-09-09T12:09:50;17.30;99.90
12470;DHT22;36499;46.484;13.832;2022-09-09T12:12:30;17.50;99.90
12470;DHT22;36499;46.484;13.832;2022-09-09T12:15:18;17.50;99.90
12470;DHT22;36499;46.484;13.832;2022-09-09T12:17:52;17.50;99.90
12470;DHT22;36499;46.484;13.832;2022-09-09T12:20:23;17.50;99.90
12470;DHT22;36499;46.484;13.832;2022-09-09T12:23:23;17.60;99.90
12470;DHT22;36499;46.484;13.832;2022-09-09T12:26:14;17.60;99.90
12470;DHT22;36499;46.484;13.832;2022-09-09T12:28:57;17.50;99.90
12470;DHT22;36499;46.484;13.832;2022-09-09T12:34:52;17.40;99.90
12470;DHT22;36499;46.484;13.832;2022-09-09T12:37:30;17.50;99.90
12470;DHT22;36499;46.484;13.832;2022-09-09T12:40:02;17.60;99.90
12470;DHT22;36499;46.484;13.832;2022-09-09T12:42:31;17.60;99.90
12470;DHT22;36499;46.484;13.832;2022-09-09T12:45:01;17.70;99.90
12470;DHT22;36499;46.484;13.832;2022-09-09T12:47:37;17.70;99.90
12470;DHT22;36499;46.484;13.832;2022-09-09T12:50:16;17.80;99.90
12470;DHT22;36499;46.484;13.832;2022-09-09T12:52:49;17.90;99.90
12470;DHT22;36499;46.484;13.832;2022-09-09T12:55:21;18.00;99.90
12470;DHT22;36499;46.484;13.832;2022-09-09T12:57:52;18.00;99.90
12470;DHT22;36499;46.484;13.832;2022-09-09T13:00:20;18.00;99.90
12470;DHT22;36499;46.484;13.832;2022-09-09T13:02:52;18.00;99.90
12470;DHT22;36499;46.484;13.832;2022-09-09T13:05:22;18.00;99.90
12470;DHT22;36499;46.484;13.832;2022-09-09T13:08:00;18.00;99.90
12470;DHT22;36499;46.484;13.832;2022-09-09T13:10:39;18.00;99.90
12470;DHT22;36499;46.484;13.832;2022-09-09T13:13:23;18.00;99.90
12470;DHT22;36499;46.484;13.832;2022-09-09T13:16:00;17.90;99.90
12470;DHT22;36499;46.484;13.832;2022-09-09T13:18:31;17.90;99.90
12470;DHT22;36499;46.484;13.832;2022-09-09T13:21:06;18.00;99.90
12470;DHT22;36499;46.484;13.832;2022-09-09T13:23:38;17.90;99.90
12470;DHT22;36499;46.484;13.832;2022-09-09T13:26:22;17.80;99.90
12470;DHT22;36499;46.484;13.832;2022-09-09T13:29:16;17.80;99.90
12470;DHT22;36499;46.484;13.832;2022-09-09T13:31:48;17.80;99.90
12470;DHT22;36499;46.484;13.832;2022-09-09T13:34:29;17.80;99.90
12470;DHT22;36499;46.484;13.832;2022-09-09T13:37:00;17.80;99.90
12470;DHT22;36499;46.484;13.832;2022-09-09T13:39:30;17.70;99.90
12470;DHT22;36499;46.484;13.832;2022-09-09T13:41:58;17.70;99.90
12470;DHT22;36499;46.484;13.832;2022-09-09T13:44:28;17.70;99.90
12470;DHT22;36499;46.484;13.832;2022-09-09T13:47:02;17.60;99.90
12470;DHT22;36499;46.484;13.832;2022-09-09T13:49:32;17.60;99.90
12470;DHT22;36499;46.484;13.832;2022-09-09T13:52:10;17.50;99.90
12470;DHT22;36499;46.484;13.832;2022-09-09T13:54:41;17.60;99.90
12470;DHT22;36499;46.484;13.832;2022-09-09T13:57:16;17.60;99.90
12470;DHT22;36499;46.484;13.832;2022-09-09T13:59:46;17.60;99.90
12470;DHT22;36499;46.484;13.832;2022-09-09T14:02:14;17.50;99.90
12470;DHT22;36499;46.484;13.832;2022-09-09T14:04:43;17.30;99.90
12470;DHT22;36499;46.484;13.832;2022-09-09T14:07:12;17.20;99.90
12470;DHT22;36499;46.484;13.832;2022-09-09T14:09:44;17.10;99.90
12470;DHT22;36499;46.484;13.832;2022-09-09T14:12:16;17.00;99.90
12470;DHT22;36499;46.484;13.832;2022-09-09T14:14:43;16.80;99.90
12470;DHT22;36499;46.484;13.832;2022-09-09T14:17:11;16.80;99.90
12470;DHT22;36499;46.484;13.832;2022-09-09T14:19:38;16.70;99.90
12470;DHT22;36499;46.484;13.832;2022-09-09T14:22:05;16.60;99.90
12470;DHT22;36499;46.484;13.832;2022-09-09T14:24:32;16.60;99.90
12470;DHT22;36499;46.484;13.832;2022-09-09T14:27:01;16.50;99.90
12470;DHT22;36499;46.484;13.832;2022-09-09T14:29:29;16.50;99.90
12470;DHT22;36499;46.484;13.832;2022-09-09T14:31:56;16.40;99.90
12470;DHT22;36499;46.484;13.832;2022-09-09T14:34:26;16.30;99.90
12470;DHT22;36499;46.484;13.832;2022-09-09T14:36:53;16.20;99.90
12470;DHT22;36499;46.484;13.832;2022-09-09T14:39:21;16.10;99.90
12470;DHT22;36499;46.484;13.832;2022-09-09T14:41:48;16.00;99.90
12470;DHT22;36499;46.484;13.832;2022-09-09T14:44:17;15.90;99.90
12470;DHT22;36499;46.484;13.832;2022-09-09T14:46:44;15.80;99.90
12470;DHT22;36499;46.484;13.832;2022-09-09T14:49:11;15.80;99.90
12470;DHT22;36499;46.484;13.832;2022-09-09T14:51:39;15.80;99.90
12470;DHT22;36499;46.484;13.832;2022-09-09T14:54:06;15.90;99.90
12470;DHT22;36499;46.484;13.832;2022-09-09T14:56:33;15.90;99.90
12470;DHT22;36499;46.484;13.832;2022-09-09T14:59:01;15.90;99.90
12470;DHT22;36499;46.484;13.832;2022-09-09T15:01:31;15.80;99.90
12470;DHT22;36499;46.484;13.832;2022-09-09T15:04:00;15.80;99.90
12470;DHT22;36499;46.484;13.832;2022-09-09T15:06:31;15.80;99.90
12470;DHT22;36499;46.484;13.832;2022-09-09T15:09:00;15.80;99.90
12470;DHT22;36499;46.484;13.832;2022-09-09T15:11:28;15.80;99.90
12470;DHT22;36499;46.484;13.832;2022-09-09T15:13:57;15.80;99.90
12470;DHT22;36499;46.484;13.832;2022-09-09T15:16:26;15.70;99.90
12470;DHT22;36499;46.484;13.832;2022-09-09T15:19:02;15.70;99.90
12470;DHT22;36499;46.484;13.832;2022-09-09T15:21:42;15.60;99.90
12470;DHT22;36499;46.484;13.832;2022-09-09T15:24:10;15.60;99.90
12470;DHT22;36499;46.484;13.832;2022-09-09T15:26:39;15.50;99.90
12470;DHT22;36499;46.484;13.832;2022-09-09T15:29:06;15.50;99.90
12470;DHT22;36499;46.484;13.832;2022-09-09T15:31:34;15.40;99.90
12470;DHT22;36499;46.484;13.832;2022-09-09T15:34:06;15.40;99.90
12470;DHT22;36499;46.484;13.832;2022-09-09T15:36:36;15.30;99.90
12470;DHT22;36499;46.484;13.832;2022-09-09T15:39:06;15.40;99.90
12470;DHT22;36499;46.484;13.832;2022-09-09T15:41:35;15.40;99.90
12470;DHT22;36499;46.484;13.832;2022-09-09T15:44:02;15.40;99.90
12470;DHT22;36499;46.484;13.832;2022-09-09T15:46:32;15.40;99.90
12470;DHT22;36499;46.484;13.832;2022-09-09T15:49:05;15.30;99.90
12470;DHT22;36499;46.484;13.832;2022-09-09T15:51:37;15.30;99.90
12470;DHT22;36499;46.484;13.832;2022-09-09T15:54:08;15.30;99.90
12470;DHT22;36499;46.484;13.832;2022-09-09T15:56:42;15.30;99.90
12470;DHT22;36499;46.484;13.832;2022-09-09T15:59:09;15.40;99.90
12470;DHT22;36499;46.484;13.832;2022-09-09T16:01:37;15.40;99.90
12470;DHT22;36499;46.484;13.832;2022-09-09T16:04:06;15.30;99.90
12470;DHT22;36499;46.484;13.832;2022-09-09T16:06:34;15.30;99.90
12470;DHT22;36499;46.484;13.832;2022-09-09T16:09:04;15.30;99.90
12470;DHT22;36499;46.484;13.832;2022-09-09T16:11:34;15.30;99.90